Time;durP1;ratioP1;P1;durP2;ratioP2;P2;SDS_P1;SDS_P2;PMS_P1;PMS_P2;Temp;Humidity;BMP_temperature;BMP_pressure;BME280_temperature;BME280_humidity;BME280_pressure;Samples;Min_cycle;Max_cycle;Signal;HPM_P1;HPM_P2
2022/08/09 00:02:24;;;;;;;;;;;;;;;;;;5077177;28;19918;-24
2022/08/09 00:04:50;;;;;;;;;;;;;;;;;;5077541;28;19912;-24
2022/08/09 00:07:16;;;;;;;;;;;;;;;;;;5077207;28;19967;-23
2022/08/09 00:09:42;;;;;;;;;;;;;;;;;;5077179;28;19921;-24
2022/08/09 00:12:08;;;;;;;;;;;;;;;;;;5077003;28;19918;-24
2022/08/09 00:14:34;;;;;;;;;;;;;;;;;;5059362;28;19909;-24
2022/08/09 00:17:00;;;;;;;;;;;;;;;;;;5077350;28;20365;-24
2022/08/09 00:19:26;;;;;;;;;;;;;;;;;;5076956;28;19974;-24
2022/08/09 00:21:52;;;;;;;;;;;;;;;;;;5077034;28;20437;-24
2022/08/09 00:24:18;;;;;;;;;;;;;;;;;;5076947;28;19913;-24
2022/08/09 00:26:44;;;;;;;;;;;;;;;;;;5077067;28;20259;-24
2022/08/09 00:29:10;;;;;;;;;;;;;;;;;;5076800;28;19913;-24
2022/08/09 00:31:36;;;;;;;;;;;;;;;;;;5076713;28;19912;-24
2022/08/09 00:34:02;;;;;;;;;;;;;;;;;;5076618;28;19920;-24
2022/08/09 00:36:28;;;;;;;;;;;;;;;;;;5076919;28;20366;-23
2022/08/09 00:38:54;;;;;;;;;;;;;;;;;;5076639;28;19908;-24
2022/08/09 00:41:21;;;;;;;;;;;;;;;;;;5076546;28;19916;-24
2022/08/09 00:43:47;;;;;;;;;;;;;;;;;;5076211;28;20009;-24
2022/08/09 00:46:13;;;;;;;;;;;;;;;;;;5076496;28;20013;-23
2022/08/09 00:48:39;;;;;;;;;;;;;;;;;;5076574;28;20342;-24
2022/08/09 00:51:08;;;;;;;;;;;;;;;;;;5076095;28;19911;-24
2022/08/09 00:53:34;;;;;;;;;;;;;;;;;;5075428;28;19947;-24
2022/08/09 00:56:00;;;;;;;;;;;;;;;;;;5076203;28;19920;-24
2022/08/09 00:58:26;;;;;;;;;;;;;;;;;;5076215;28;19909;-24
2022/08/09 01:00:52;;;;;;;;;;;;;;;;;;5076093;28;20302;-24
2022/08/09 01:03:18;;;;;;;;;;;;;;;;;;5076048;28;20358;-24
2022/08/09 01:05:44;;;;;;;;;;;;;;;;;;5076298;28;19944;-24
2022/08/09 01:08:10;;;;;;;;;;;;;;;;;;5076331;28;20005;-24
2022/08/09 01:10:36;;;;;;;;;;;;;;;;;;5076024;28;20367;-24
2022/08/09 01:13:02;;;;;;;;;;;;;;;;;;5075898;28;19923;-24
2022/08/09 01:15:28;;;;;;;;;;;;;;;;;;5075935;28;20381;-24
2022/08/09 01:17:54;;;;;;;;;;;;;;;;;;5076180;28;19908;-30
2022/08/09 01:20:20;;;;;;;;;;;;;;;;;;5075870;28;19999;-24
2022/08/09 01:22:46;;;;;;;;;;;;;;;;;;5075678;28;19926;-24
2022/08/09 01:25:12;;;;;;;;;;;;;;;;;;5049870;28;19973;-24
2022/08/09 01:27:38;;;;;;;;;;;;;;;;;;5075607;28;19958;-24
2022/08/09 01:30:04;;;;;;;;;;;;;;;;;;5058006;28;19912;-24
2022/08/09 01:32:30;;;;;;;;;;;;;;;;;;5075701;28;19958;-24
2022/08/09 01:34:56;;;;;;;;;;;;;;;;;;5075565;28;20336;-24
2022/08/09 01:37:22;;;;;;;;;;;;;;;;;;5057787;28;19913;-24
2022/08/09 01:39:48;;;;;;;;;;;;;;;;;;5075400;28;19909;-24
2022/08/09 01:42:14;;;;;;;;;;;;;;;;;;5075106;28;19916;-23
2022/08/09 01:44:40;;;;;;;;;;;;;;;;;;5075277;28;19961;-24
2022/08/09 01:47:06;;;;;;;;;;;;;;;;;;5075278;28;19908;-24
2022/08/09 01:49:32;;;;;;;;;;;;;;;;;;5075453;28;19970;-24
2022/08/09 01:51:58;;;;;;;;;;;;;;;;;;5057541;28;19912;-24
2022/08/09 01:54:24;;;;;;;;;;;;;;;;;;5075424;28;19920;-24
2022/08/09 01:56:50;;;;;;;;;;;;;;;;;;5075354;28;19913;-24
2022/08/09 01:59:16;;;;;;;;;;;;;;;;;;5075128;28;20042;-24
2022/08/09 02:01:42;;;;;;;;;;;;;;;;;;5075047;28;19919;-24
2022/08/09 02:04:08;;;;;;;;;;;;;;;;;;5074859;28;19916;-24
2022/08/09 02:09:19;;;;;;;;;;;;;;;;;;5075081;28;19919;-24
2022/08/09 02:11:45;;;;;;;;;;;;;;;;;;5074890;28;19913;-24
2022/08/09 02:14:11;;;;;;;;;;;;;;;;;;5074803;28;20359;-24
2022/08/09 02:16:37;;;;;;;;;;;;;;;;;;5074815;28;19975;-24
2022/08/09 02:19:03;;;;;;;;;;;;;;;;;;5074837;28;20026;-24
2022/08/09 02:21:29;;;;;;;;;;;;;;;;;;5075137;28;19955;-23
2022/08/09 02:23:55;;;;;;;;;;;;;;;;;;5074661;28;20256;-24
2022/08/09 02:26:21;;;;;;;;;;;;;;;;;;5074693;28;19920;-24
2022/08/09 02:28:47;;;;;;;;;;;;;;;;;;5074682;28;19934;-24
2022/08/09 02:31:13;;;;;;;;;;;;;;;;;;5074942;28;19912;-24
2022/08/09 02:33:39;;;;;;;;;;;;;;;;;;5057050;28;19948;-23
2022/08/09 02:36:05;;;;;;;;;;;;;;;;;;5074690;28;20007;-25
2022/08/09 02:38:31;;;;;;;;;;;;;;;;;;5074704;28;19916;-23
2022/08/09 02:40:57;;;;;;;;;;;;;;;;;;5074929;28;19962;-24
2022/08/09 02:43:22;;;;;;;;;;;;;;;;;;5074281;28;19920;-24
2022/08/09 02:45:48;;;;;;;;;;;;;;;;;;5074564;28;19916;-24
2022/08/09 02:48:15;;;;;;;;;;;;;;;;;;5074625;28;19913;-24
2022/08/09 02:50:41;;;;;;;;;;;;;;;;;;5074774;28;20262;-24
2022/08/09 02:53:07;;;;;;;;;;;;;;;;;;5056839;28;20057;-24
2022/08/09 02:55:33;;;;;;;;;;;;;;;;;;5074467;28;19916;-24
2022/08/09 02:57:59;;;;;;;;;;;;;;;;;;5075007;28;20288;-24
2022/08/09 03:00:25;;;;;;;;;;;;;;;;;;5074490;28;19912;-24
2022/08/09 03:02:51;;;;;;;;;;;;;;;;;;5074124;28;19916;-24
2022/08/09 03:05:17;;;;;;;;;;;;;;;;;;5074652;28;19977;-24
2022/08/09 03:07:43;;;;;;;;;;;;;;;;;;5074381;28;19916;-24
2022/08/09 03:10:09;;;;;;;;;;;;;;;;;;5074825;28;19912;-24
2022/08/09 03:12:35;;;;;;;;;;;;;;;;;;5074477;28;19912;-24
2022/08/09 03:15:01;;;;;;;;;;;;;;;;;;5075061;28;19999;-23
2022/08/09 03:17:27;;;;;;;;;;;;;;;;;;5078175;28;20008;-24
2022/08/09 03:19:53;;;;;;;;;;;;;;;;;;5078087;28;20246;-24
2022/08/09 03:22:19;;;;;;;;;;;;;;;;;;5077976;28;19913;-24
2022/08/09 03:24:45;;;;;;;;;;;;;;;;;;5077955;28;20259;-24
2022/08/09 03:27:11;;;;;;;;;;;;;;;;;;5078223;28;19915;-24
2022/08/09 03:29:37;;;;;;;;;;;;;;;;;;5077884;28;19966;-24
2022/08/09 03:32:03;;;;;;;;;;;;;;;;;;5060174;28;19944;-24
2022/08/09 03:34:29;;;;;;;;;;;;;;;;;;5060071;28;19999;-23
2022/08/09 03:36:55;;;;;;;;;;;;;;;;;;5078477;28;19951;-23
2022/08/09 03:39:23;;;;;;;;;;;;;;;;;;5077897;28;19999;-23
2022/08/09 03:41:49;;;;;;;;;;;;;;;;;;5077482;28;20000;-23
2022/08/09 03:44:15;;;;;;;;;;;;;;;;;;5077325;28;19924;-23
2022/08/09 03:46:41;;;;;;;;;;;;;;;;;;5077501;28;19912;-23
2022/08/09 03:49:07;;;;;;;;;;;;;;;;;;5077358;28;19912;-23
2022/08/09 03:51:33;;;;;;;;;;;;;;;;;;5077358;28;19904;-23
2022/08/09 03:53:59;;;;;;;;;;;;;;;;;;5077531;28;19981;-23
2022/08/09 03:56:25;;;;;;;;;;;;;;;;;;5077402;28;19991;-23
2022/08/09 03:58:51;;;;;;;;;;;;;;;;;;5077164;28;19923;-23
2022/08/09 04:01:17;;;;;;;;;;;;;;;;;;5059458;28;20003;-23
2022/08/09 04:03:43;;;;;;;;;;;;;;;;;;5077250;28;20025;-23
2022/08/09 04:06:09;;;;;;;;;;;;;;;;;;5077065;28;20004;-23
2022/08/09 04:08:35;;;;;;;;;;;;;;;;;;5077154;28;19956;-23
2022/08/09 04:11:01;;;;;;;;;;;;;;;;;;5077108;28;19913;-24
2022/08/09 04:13:27;;;;;;;;;;;;;;;;;;5076774;28;19909;-25
2022/08/09 04:15:53;;;;;;;;;;;;;;;;;;5059176;28;19954;-24
2022/08/09 04:18:19;;;;;;;;;;;;;;;;;;5059067;28;19908;-24
2022/08/09 04:20:45;;;;;;;;;;;;;;;;;;5076932;28;20000;-24
2022/08/09 04:23:11;;;;;;;;;;;;;;;;;;5068307;28;19917;-25
2022/08/09 04:25:38;;;;;;;;;;;;;;;;;;5076846;28;19916;-24
2022/08/09 04:28:05;;;;;;;;;;;;;;;;;;5077523;28;20185;-25
2022/08/09 04:30:33;;;;;;;;;;;;;;;;;;5078737;28;20267;-24
2022/08/09 04:33:00;;;;;;;;;;;;;;;;;;5079190;28;20300;-25
2022/08/09 04:35:27;;;;;;;;;;;;;;;;;;5079650;28;19924;-25
2022/08/09 04:37:54;;;;;;;;;;;;;;;;;;5079315;28;19926;-25
2022/08/09 04:40:21;;;;;;;;;;;;;;;;;;5061625;28;20339;-25
2022/08/09 04:42:48;;;;;;;;;;;;;;;;;;5057392;28;20359;-25
2022/08/09 04:45:16;;;;;;;;;;;;;;;;;;5057420;28;19984;-25
2022/08/09 04:47:44;;;;;;;;;;;;;;;;;;5057330;28;19935;-25
2022/08/09 04:50:11;;;;;;;;;;;;;;;;;;5060842;28;19909;-25
2022/08/09 04:52:38;;;;;;;;;;;;;;;;;;5078874;28;19966;-25
2022/08/09 04:55:05;;;;;;;;;;;;;;;;;;5060899;28;19913;-25
2022/08/09 04:57:32;;;;;;;;;;;;;;;;;;5078359;28;19944;-25
2022/08/09 04:59:59;;;;;;;;;;;;;;;;;;5078452;28;20293;-25
2022/08/09 05:05:11;;;;;;;;;;;;;;;;;;5078320;28;19954;-25
2022/08/09 05:07:39;;;;;;;;;;;;;;;;;;5078605;28;19927;-25
2022/08/09 05:10:07;;;;;;;;;;;;;;;;;;5078000;28;19908;-25
2022/08/09 05:12:35;;;;;;;;;;;;;;;;;;5077767;28;19919;-25
2022/08/09 05:15:02;;;;;;;;;;;;;;;;;;5078336;28;20405;-25
2022/08/09 05:17:32;;;;;;;;;;;;;;;;;;5077316;28;19951;-24
2022/08/09 05:20:01;;;;;;;;;;;;;;;;;;5059834;28;19954;-24
2022/08/09 05:22:29;;;;;;;;;;;;;;;;;;5077811;28;19986;-25
2022/08/09 05:27:41;;;;;;;;;;;;;;;;;;5078813;28;20388;-25
2022/08/09 05:30:09;;;;;;;;;;;;;;;;;;5060285;28;20022;-25
2022/08/09 05:32:36;;;;;;;;;;;;;;;;;;5060634;28;19920;-25
2022/08/09 05:35:04;;;;;;;;;;;;;;;;;;5077632;28;19938;-32
2022/08/09 05:37:31;;;;;;;;;;;;;;;;;;5077425;28;19927;-23
2022/08/09 05:39:58;;;;;;;;;;;;;;;;;;5076941;28;19916;-23
2022/08/09 05:42:25;;;;;;;;;;;;;;;;;;5059303;28;19913;-25
2022/08/09 05:45:09;;;;;;;;;;;;;;;;;;5078065;28;19908;-25
2022/08/09 05:47:39;;;;;;;;;;;;;;;;;;5077644;28;19947;-25
2022/08/09 05:50:08;;;;;;;;;;;;;;;;;;5077472;28;19912;-25
2022/08/09 05:52:35;;;;;;;;;;;;;;;;;;5077644;28;20298;-23
2022/08/09 05:55:04;;;;;;;;;;;;;;;;;;5078242;28;19908;-23
2022/08/09 05:57:31;;;;;;;;;;;;;;;;;;5077622;28;20378;-23
2022/08/09 06:00:13;;;;;;;;;;;;;;;;;;5060451;28;20349;-23
2022/08/09 06:02:42;;;;;;;;;;;;;;;;;;5059196;28;19927;-23
2022/08/09 06:07:56;;;;;;;;;;;;;;;;;;5079087;28;19923;-24
2022/08/09 06:10:45;;;;;;;;;;;;;;;;;;5078154;28;20000;-23
2022/08/09 06:13:11;;;;;;;;;;;;;;;;;;5076256;28;19912;-23
2022/08/09 06:18:29;;;;;;;;;;;;;;;;;;5076800;28;19936;-23
2022/08/09 06:20:56;;;;;;;;;;;;;;;;;;5076570;28;19923;-23
2022/08/09 06:23:23;;;;;;;;;;;;;;;;;;5076391;28;19916;-23
2022/08/09 06:25:51;;;;;;;;;;;;;;;;;;5076379;28;20235;-23
2022/08/09 06:28:24;;;;;;;;;;;;;;;;;;5075930;28;20323;-24
2022/08/09 06:30:52;;;;;;;;;;;;;;;;;;5076288;28;19912;-23
2022/08/09 06:33:21;;;;;;;;;;;;;;;;;;5058024;28;19922;-23
2022/08/09 06:35:55;;;;;;;;;;;;;;;;;;5076728;28;19995;-23
2022/08/09 06:38:32;;;;;;;;;;;;;;;;;;5076427;28;19959;-23
2022/08/09 07:00:52;;;;;;;;;;;;;;;;;;5085312;28;20253;-22
2022/08/09 07:03:21;;;;;;;;;;;;;;;;;;5080897;28;19916;-23
2022/08/09 07:05:49;;;;;;;;;;;;;;;;;;5080705;28;19920;-22
2022/08/09 07:08:16;;;;;;;;;;;;;;;;;;5080272;28;19912;-23
2022/08/09 07:10:43;;;;;;;;;;;;;;;;;;5080443;28;20342;-23
2022/08/09 07:13:10;;;;;;;;;;;;;;;;;;5063459;28;19916;-23
2022/08/09 07:15:43;;;;;;;;;;;;;;;;;;5063549;28;19913;-22
2022/08/09 07:18:14;;;;;;;;;;;;;;;;;;5081265;28;19912;-23
2022/08/09 07:20:51;;;;;;;;;;;;;;;;;;5081523;28;19918;-23
2022/08/09 07:23:20;;;;;;;;;;;;;;;;;;5081459;28;19923;-22
2022/08/09 07:25:47;;;;;;;;;;;;;;;;;;5062473;28;19971;-22
2022/08/09 07:28:17;;;;;;;;;;;;;;;;;;5062768;28;20373;-22
2022/08/09 07:30:43;;;;;;;;;;;;;;;;;;5080961;28;19916;-22
2022/08/09 07:33:12;;;;;;;;;;;;;;;;;;5080254;28;19991;-22
2022/08/09 07:35:39;;;;;;;;;;;;;;;;;;5080368;28;19909;-22
2022/08/09 07:38:07;;;;;;;;;;;;;;;;;;5062479;28;19912;-22
2022/08/09 07:40:39;;;;;;;;;;;;;;;;;;5080594;28;19917;-22
2022/08/09 07:43:07;;;;;;;;;;;;;;;;;;5062410;28;19971;-22
2022/08/09 07:45:43;;;;;;;;;;;;;;;;;;5080565;28;20126;-21
2022/08/09 07:48:11;;;;;;;;;;;;;;;;;;5080466;28;19920;-21
2022/08/09 07:50:42;;;;;;;;;;;;;;;;;;5062985;28;20274;-21
2022/08/09 07:53:09;;;;;;;;;;;;;;;;;;5062398;28;19923;-22
2022/08/09 07:55:42;;;;;;;;;;;;;;;;;;5062358;28;19935;-22
2022/08/09 07:58:09;;;;;;;;;;;;;;;;;;5061257;28;20019;-22
2022/08/09 08:00:36;;;;;;;;;;;;;;;;;;5062020;28;20347;-21
2022/08/09 08:03:07;;;;;;;;;;;;;;;;;;5063051;28;19981;-22
2022/08/09 08:05:38;;;;;;;;;;;;;;;;;;5080818;28;20353;-21
2022/08/09 08:08:07;;;;;;;;;;;;;;;;;;5081087;28;19919;-21
2022/08/09 08:10:35;;;;;;;;;;;;;;;;;;5062566;28;20033;-21
2022/08/09 08:13:07;;;;;;;;;;;;;;;;;;5079595;28;19923;-21
2022/08/09 08:15:34;;;;;;;;;;;;;;;;;;5079808;28;19973;-21
2022/08/09 08:18:06;;;;;;;;;;;;;;;;;;5079479;28;19919;-22
2022/08/09 08:23:25;;;;;;;;;;;;;;;;;;5079669;28;19923;-22
2022/08/09 08:25:55;;;;;;;;;;;;;;;;;;5079646;28;19912;-21
2022/08/09 08:28:22;;;;;;;;;;;;;;;;;;5062562;28;19924;-22
2022/08/09 08:30:49;;;;;;;;;;;;;;;;;;5062370;28;20267;-22
2022/08/09 08:33:18;;;;;;;;;;;;;;;;;;5062175;28;19912;-22
2022/08/09 08:38:40;;;;;;;;;;;;;;;;;;5079111;28;20392;-19
2022/08/09 08:41:14;;;;;;;;;;;;;;;;;;5061406;28;19944;-22
2022/08/09 08:43:45;;;;;;;;;;;;;;;;;;5079978;28;19924;-23
2022/08/09 08:49:03;;;;;;;;;;;;;;;;;;5078896;28;19922;-22
2022/08/09 08:51:32;;;;;;;;;;;;;;;;;;5079136;28;19912;-22
2022/08/09 08:54:05;;;;;;;;;;;;;;;;;;5061478;28;19951;-23
2022/08/09 08:56:34;;;;;;;;;;;;;;;;;;5079239;28;19916;-22
2022/08/09 08:59:01;;;;;;;;;;;;;;;;;;5078488;28;19981;-23
2022/08/09 09:01:29;;;;;;;;;;;;;;;;;;5078747;28;20006;-22
2022/08/09 09:04:00;;;;;;;;;;;;;;;;;;5078263;28;19920;-23
2022/08/09 09:06:29;;;;;;;;;;;;;;;;;;5060776;28;19973;-21
2022/08/09 09:08:56;;;;;;;;;;;;;;;;;;5060198;28;20292;-23
2022/08/09 09:11:23;;;;;;;;;;;;;;;;;;5060135;28;19909;-22
2022/08/09 09:13:51;;;;;;;;;;;;;;;;;;5076824;28;19912;-23
2022/08/09 09:16:19;;;;;;;;;;;;;;;;;;5077743;28;20339;-22
2022/08/09 09:18:46;;;;;;;;;;;;;;;;;;5060109;28;19916;-22
2022/08/09 09:21:17;;;;;;;;;;;;;;;;;;5059717;28;19998;-23
2022/08/09 09:23:46;;;;;;;;;;;;;;;;;;5077865;28;19991;-22
2022/08/09 09:26:17;;;;;;;;;;;;;;;;;;5077592;28;19909;-23
2022/08/09 09:28:46;;;;;;;;;;;;;;;;;;5061284;28;19938;-22
2022/08/09 09:31:14;;;;;;;;;;;;;;;;;;5078309;28;19936;-21
2022/08/09 09:33:42;;;;;;;;;;;;;;;;;;5078703;28;20302;-22
2022/08/09 09:36:10;;;;;;;;;;;;;;;;;;5060627;28;19909;-22
2022/08/09 09:38:39;;;;;;;;;;;;;;;;;;5077524;28;19920;-22
2022/08/09 09:41:11;;;;;;;;;;;;;;;;;;5077630;28;19935;-22
2022/08/09 09:43:39;;;;;;;;;;;;;;;;;;5059975;28;19913;-22
2022/08/09 09:46:07;;;;;;;;;;;;;;;;;;5077789;28;20003;-22
2022/08/09 09:48:35;;;;;;;;;;;;;;;;;;5077176;28;19916;-22
2022/08/09 09:51:05;;;;;;;;;;;;;;;;;;5077707;28;19995;-22
2022/08/09 09:53:33;;;;;;;;;;;;;;;;;;5077765;28;19954;-22
2022/08/09 09:56:00;;;;;;;;;;;;;;;;;;5078876;28;19931;-22
2022/08/09 09:58:27;;;;;;;;;;;;;;;;;;5077446;28;19939;-22
2022/08/09 10:00:55;;;;;;;;;;;;;;;;;;5077267;28;20008;-21
2022/08/09 10:03:23;;;;;;;;;;;;;;;;;;5059896;28;19913;-21
2022/08/09 10:05:53;;;;;;;;;;;;;;;;;;5077526;28;20027;-21
2022/08/09 10:08:25;;;;;;;;;;;;;;;;;;5059651;28;19908;-22
2022/08/09 10:10:54;;;;;;;;;;;;;;;;;;5077983;28;20071;-22
2022/08/09 10:13:22;;;;;;;;;;;;;;;;;;5060639;28;19991;-22
2022/08/09 10:15:50;;;;;;;;;;;;;;;;;;5077876;28;19919;-22
2022/08/09 10:21:15;;;;;;;;;;;;;;;;;;5077651;28;19969;-21
2022/08/09 10:23:44;;;;;;;;;;;;;;;;;;5077441;28;19916;-21
2022/08/09 10:26:12;;;;;;;;;;;;;;;;;;5077616;28;19919;-21
2022/08/09 10:28:40;;;;;;;;;;;;;;;;;;5059262;28;20013;-21
2022/08/09 10:34:09;;;;;;;;;;;;;;;;;;5075800;28;19915;-22
2022/08/09 10:39:31;;;;;;;;;;;;;;;;;;5077950;28;20274;-22
2022/08/09 10:42:05;;;;;;;;;;;;;;;;;;5076760;28;19948;-21
2022/08/09 10:44:33;;;;;;;;;;;;;;;;;;5058874;28;19948;-22
2022/08/09 10:47:01;;;;;;;;;;;;;;;;;;5058484;28;19913;-21
2022/08/09 10:49:28;;;;;;;;;;;;;;;;;;5076749;28;19912;-22
2022/08/09 10:51:56;;;;;;;;;;;;;;;;;;5058169;28;19955;-22
2022/08/09 10:54:27;;;;;;;;;;;;;;;;;;5058433;28;20018;-22
2022/08/09 10:56:55;;;;;;;;;;;;;;;;;;5077232;28;19919;-22
2022/08/09 10:59:27;;;;;;;;;;;;;;;;;;5057920;28;19981;-22
2022/08/09 11:01:56;;;;;;;;;;;;;;;;;;5058526;28;19916;-22
2022/08/09 11:04:28;;;;;;;;;;;;;;;;;;5058982;28;19917;-22
2022/08/09 11:06:58;;;;;;;;;;;;;;;;;;5076099;28;19993;-22
2022/08/09 11:09:28;;;;;;;;;;;;;;;;;;5076249;28;19913;-22
2022/08/09 11:12:03;;;;;;;;;;;;;;;;;;5075543;28;19909;-22
2022/08/09 11:14:34;;;;;;;;;;;;;;;;;;5057654;28;20069;-21
2022/08/09 11:17:02;;;;;;;;;;;;;;;;;;5075298;28;19912;-22
2022/08/09 11:19:34;;;;;;;;;;;;;;;;;;5076246;28;19912;-22
2022/08/09 11:22:08;;;;;;;;;;;;;;;;;;5077202;28;19976;-21
2022/08/09 11:24:41;;;;;;;;;;;;;;;;;;5077683;28;19935;-22
2022/08/09 11:27:14;;;;;;;;;;;;;;;;;;5076745;28;19912;-22
2022/08/09 11:29:41;;;;;;;;;;;;;;;;;;5077920;28;19912;-22
2022/08/09 11:32:10;;;;;;;;;;;;;;;;;;5077178;28;19916;-22
2022/08/09 11:34:39;;;;;;;;;;;;;;;;;;5075950;28;19912;-22
2022/08/09 11:37:08;;;;;;;;;;;;;;;;;;5061354;28;19909;-21
2022/08/09 11:39:35;;;;;;;;;;;;;;;;;;5063275;28;19912;-21
2022/08/09 11:42:07;;;;;;;;;;;;;;;;;;5063082;28;19954;-21
2022/08/09 11:44:36;;;;;;;;;;;;;;;;;;5080255;28;19912;-21
2022/08/09 11:47:07;;;;;;;;;;;;;;;;;;5081093;28;19912;-22
2022/08/09 11:49:36;;;;;;;;;;;;;;;;;;5081184;28;20007;-22
2022/08/09 11:52:05;;;;;;;;;;;;;;;;;;5080670;28;19987;-21
2022/08/09 11:54:34;;;;;;;;;;;;;;;;;;5080080;28;19912;-22
2022/08/09 11:57:05;;;;;;;;;;;;;;;;;;5079018;28;20273;-22
2022/08/09 11:59:35;;;;;;;;;;;;;;;;;;5061766;28;19928;-22
2022/08/09 12:02:07;;;;;;;;;;;;;;;;;;5061431;28;20382;-21
2022/08/09 12:04:40;;;;;;;;;;;;;;;;;;5080090;28;19931;-21
2022/08/09 12:07:15;;;;;;;;;;;;;;;;;;5080981;28;20242;-22
2022/08/09 12:09:47;;;;;;;;;;;;;;;;;;5080141;28;19912;-22
2022/08/09 12:12:18;;;;;;;;;;;;;;;;;;5079252;28;19923;-22
2022/08/09 12:14:58;;;;;;;;;;;;;;;;;;5061575;28;19971;-22
2022/08/09 12:17:31;;;;;;;;;;;;;;;;;;5074180;28;19912;-22
2022/08/09 12:19:59;;;;;;;;;;;;;;;;;;5079799;28;20227;-22
2022/08/09 12:22:29;;;;;;;;;;;;;;;;;;5079732;28;19909;-21
2022/08/09 12:24:56;;;;;;;;;;;;;;;;;;5079673;28;19948;-22
2022/08/09 12:27:29;;;;;;;;;;;;;;;;;;5061820;28;19912;-22
2022/08/09 12:29:57;;;;;;;;;;;;;;;;;;5061139;28;19962;-22
2022/08/09 12:32:26;;;;;;;;;;;;;;;;;;5079341;28;19955;-22
2022/08/09 12:34:55;;;;;;;;;;;;;;;;;;5061042;28;19959;-21
2022/08/09 12:37:24;;;;;;;;;;;;;;;;;;5078845;28;20410;-22
2022/08/09 12:39:55;;;;;;;;;;;;;;;;;;5061213;28;19912;-22
2022/08/09 12:42:25;;;;;;;;;;;;;;;;;;5078737;28;19908;-22
2022/08/09 12:44:56;;;;;;;;;;;;;;;;;;5078994;28;20034;-22
2022/08/09 12:47:28;;;;;;;;;;;;;;;;;;5078899;28;19908;-22
2022/08/09 12:52:42;;;;;;;;;;;;;;;;;;5079488;28;19975;-22
2022/08/09 12:55:11;;;;;;;;;;;;;;;;;;5060811;28;20263;-22
2022/08/09 12:57:38;;;;;;;;;;;;;;;;;;5078855;28;19927;-22
2022/08/09 13:00:08;;;;;;;;;;;;;;;;;;5079220;28;19920;-22
2022/08/09 13:02:37;;;;;;;;;;;;;;;;;;5078824;28;20299;-21
2022/08/09 13:05:07;;;;;;;;;;;;;;;;;;5079016;28;19916;-22
2022/08/09 13:07:34;;;;;;;;;;;;;;;;;;5060825;28;20011;-22
2022/08/09 13:10:01;;;;;;;;;;;;;;;;;;5079024;28;19912;-22
2022/08/09 13:12:29;;;;;;;;;;;;;;;;;;5080296;28;19908;-21
2022/08/09 13:14:56;;;;;;;;;;;;;;;;;;5078491;28;19982;-22
2022/08/09 13:17:24;;;;;;;;;;;;;;;;;;5077659;28;19954;-22
2022/08/09 13:19:52;;;;;;;;;;;;;;;;;;5060181;28;20225;-22
2022/08/09 13:22:19;;;;;;;;;;;;;;;;;;5077747;28;19908;-22
2022/08/09 13:24:47;;;;;;;;;;;;;;;;;;5078649;28;19995;-21
2022/08/09 13:27:15;;;;;;;;;;;;;;;;;;5060078;28;20263;-21
2022/08/09 13:29:43;;;;;;;;;;;;;;;;;;5077365;28;20292;-22
2022/08/09 13:32:12;;;;;;;;;;;;;;;;;;5078430;28;19913;-22
2022/08/09 13:34:40;;;;;;;;;;;;;;;;;;5078734;28;19982;-22
2022/08/09 13:37:08;;;;;;;;;;;;;;;;;;5077510;28;20346;-22
2022/08/09 13:39:36;;;;;;;;;;;;;;;;;;5078214;28;20073;-22
2022/08/09 13:42:05;;;;;;;;;;;;;;;;;;5060578;28;19919;-21
2022/08/09 13:44:39;;;;;;;;;;;;;;;;;;5060012;28;19917;-22
2022/08/09 13:47:34;;;;;;;;;;;;;;;;;;5075884;28;20120;-21
2022/08/09 13:50:01;;;;;;;;;;;;;;;;;;5078103;28;19912;-26
2022/08/09 13:52:33;;;;;;;;;;;;;;;;;;5077640;28;20254;-21
2022/08/09 13:55:01;;;;;;;;;;;;;;;;;;5059793;28;20305;-21
2022/08/09 13:57:29;;;;;;;;;;;;;;;;;;5077659;28;19920;-22
2022/08/09 13:59:59;;;;;;;;;;;;;;;;;;5078196;28;19916;-22
2022/08/09 14:02:27;;;;;;;;;;;;;;;;;;5077943;28;19913;-21
2022/08/09 14:04:54;;;;;;;;;;;;;;;;;;5078312;28;19912;-22
2022/08/09 14:07:21;;;;;;;;;;;;;;;;;;5078309;28;19915;-22
2022/08/09 14:09:56;;;;;;;;;;;;;;;;;;5059850;28;19919;-22
2022/08/09 14:12:23;;;;;;;;;;;;;;;;;;5059683;28;19928;-22
2022/08/09 14:14:50;;;;;;;;;;;;;;;;;;5059470;28;19923;-22
2022/08/09 14:17:18;;;;;;;;;;;;;;;;;;5077309;28;19917;-22
2022/08/09 14:19:46;;;;;;;;;;;;;;;;;;5077547;28;20003;-22
2022/08/09 14:22:14;;;;;;;;;;;;;;;;;;5076963;28;19999;-22
2022/08/09 14:24:42;;;;;;;;;;;;;;;;;;5059854;28;19946;-21
2022/08/09 14:27:09;;;;;;;;;;;;;;;;;;5059105;28;19996;-22
2022/08/09 14:29:43;;;;;;;;;;;;;;;;;;5077776;28;20035;-21
2022/08/09 14:32:14;;;;;;;;;;;;;;;;;;5059357;28;20289;-21
2022/08/09 14:34:44;;;;;;;;;;;;;;;;;;5078393;28;19913;-21
2022/08/09 14:37:17;;;;;;;;;;;;;;;;;;5076804;28;19912;-21
2022/08/09 14:39:44;;;;;;;;;;;;;;;;;;5077566;28;19916;-22
2022/08/09 14:45:02;;;;;;;;;;;;;;;;;;5077122;28;19927;-22
2022/08/09 14:47:30;;;;;;;;;;;;;;;;;;5076536;28;19919;-22
2022/08/09 14:49:56;;;;;;;;;;;;;;;;;;5076091;28;19912;-22
2022/08/09 14:52:23;;;;;;;;;;;;;;;;;;5076767;28;19924;-22
2022/08/09 15:08:56;;;;;;;;;;;;;;;;;;5183187;22;20350;-24
2022/08/09 15:11:23;;;;;;;;;;;;;;;;;;5057834;28;19924;-24
2022/08/09 15:13:51;;;;;;;;;;;;;;;;;;5059891;28;19978;-23
2022/08/09 15:16:18;;;;;;;;;;;;;;;;;;5079764;28;19985;-25
2022/08/09 15:18:46;;;;;;;;;;;;;;;;;;5062216;28;19919;-24
2022/08/09 15:23:59;;;;;;;;;;;;;;;;;;5079327;28;20288;-24
2022/08/09 15:29:12;;;;;;;;;;;;;;;;;;5079571;28;19919;-24
2022/08/09 15:31:40;;;;;;;;;;;;;;;;;;5061405;28;19913;-24
2022/08/09 15:34:08;;;;;;;;;;;;;;;;;;5079445;28;20250;-24
2022/08/09 15:36:37;;;;;;;;;;;;;;;;;;5079759;28;19951;-24
2022/08/09 15:39:06;;;;;;;;;;;;;;;;;;5061548;28;19913;-24
2022/08/09 15:41:35;;;;;;;;;;;;;;;;;;5061682;28;19912;-23
2022/08/09 15:44:02;;;;;;;;;;;;;;;;;;5079746;28;20296;-23
2022/08/09 15:49:20;;;;;;;;;;;;;;;;;;5078139;28;20360;-23
2022/08/09 15:51:47;;;;;;;;;;;;;;;;;;5062828;28;19913;-23
2022/08/09 15:54:14;;;;;;;;;;;;;;;;;;5061392;28;19997;-23
2022/08/09 15:56:41;;;;;;;;;;;;;;;;;;5061924;28;20319;-23
2022/08/09 15:59:10;;;;;;;;;;;;;;;;;;5079705;28;19916;-23
2022/08/09 16:01:56;;;;;;;;;;;;;;;;;;5064253;28;20293;-23
2022/08/09 16:04:23;;;;;;;;;;;;;;;;;;5079335;28;19916;-24
2022/08/09 16:06:51;;;;;;;;;;;;;;;;;;5079187;28;20250;-24
2022/08/09 16:09:18;;;;;;;;;;;;;;;;;;5061288;28;19938;-24
2022/08/09 16:17:27;;;;;;;;;;;;;;;;;;5079079;28;19924;-24
2022/08/09 16:19:54;;;;;;;;;;;;;;;;;;5079096;28;19943;-23
2022/08/09 16:39:19;;;;;;;;;;;;;;;;;;4273173;26;19963;-23
2022/08/09 16:41:46;;;;;;;;;;;;;;;;;;5058706;28;19917;-24
2022/08/09 16:44:13;;;;;;;;;;;;;;;;;;5058000;28;19966;-23
2022/08/09 16:46:41;;;;;;;;;;;;;;;;;;5041356;28;19909;-24
2022/08/09 16:49:08;;;;;;;;;;;;;;;;;;5038429;28;19913;-23
2022/08/09 16:51:35;;;;;;;;;;;;;;;;;;5039075;28;19909;-24
2022/08/09 16:54:02;;;;;;;;;;;;;;;;;;5021508;28;19913;-23
2022/08/09 16:56:30;;;;;;;;;;;;;;;;;;5020931;28;19916;-23
2022/08/09 16:58:57;;;;;;;;;;;;;;;;;;5020887;28;19960;-24
2022/08/09 17:01:23;;;;;;;;;;;;;;;;;;5020805;28;20335;-24
2022/08/09 17:03:51;;;;;;;;;;;;;;;;;;5037976;28;19917;-24
2022/08/09 17:06:19;;;;;;;;;;;;;;;;;;5020569;28;19909;-24
2022/08/09 17:08:45;;;;;;;;;;;;;;;;;;5020761;28;19951;-24
2022/08/09 17:11:13;;;;;;;;;;;;;;;;;;5038097;28;19916;-24
2022/08/09 17:13:41;;;;;;;;;;;;;;;;;;5020332;28;19923;-24
2022/08/09 17:16:10;;;;;;;;;;;;;;;;;;5020230;28;19924;-25
2022/08/09 17:18:38;;;;;;;;;;;;;;;;;;5020508;28;19967;-25
2022/08/09 17:21:05;;;;;;;;;;;;;;;;;;5037822;28;19913;-24
2022/08/09 17:23:33;;;;;;;;;;;;;;;;;;5037803;28;20267;-25
2022/08/09 17:26:00;;;;;;;;;;;;;;;;;;5038242;28;19913;-23
2022/08/09 17:28:27;;;;;;;;;;;;;;;;;;5037742;28;19909;-24
2022/08/09 17:30:54;;;;;;;;;;;;;;;;;;5020796;28;19981;-24
2022/08/09 17:33:22;;;;;;;;;;;;;;;;;;5037617;28;20237;-23
2022/08/09 17:35:49;;;;;;;;;;;;;;;;;;5036910;28;19983;-24
2022/08/09 17:38:17;;;;;;;;;;;;;;;;;;5019621;28;20367;-24
2022/08/09 17:40:45;;;;;;;;;;;;;;;;;;5019795;28;19909;-24
2022/08/09 17:43:12;;;;;;;;;;;;;;;;;;5036919;28;20378;-23
2022/08/09 17:45:41;;;;;;;;;;;;;;;;;;5019149;28;19926;-24
2022/08/09 17:48:08;;;;;;;;;;;;;;;;;;5036209;28;20311;-24
2022/08/09 17:50:36;;;;;;;;;;;;;;;;;;5036949;28;19988;-24
2022/08/09 17:53:03;;;;;;;;;;;;;;;;;;5036108;28;20272;-24
2022/08/09 17:55:30;;;;;;;;;;;;;;;;;;5036333;28;19935;-24
2022/08/09 17:57:56;;;;;;;;;;;;;;;;;;5018515;28;19913;-25
2022/08/09 18:00:23;;;;;;;;;;;;;;;;;;5018785;28;19909;-23
2022/08/09 18:02:50;;;;;;;;;;;;;;;;;;5018436;28;19952;-23
2022/08/09 18:05:17;;;;;;;;;;;;;;;;;;5019313;28;19910;-23
2022/08/09 18:07:47;;;;;;;;;;;;;;;;;;5018184;28;19924;-24
2022/08/09 18:10:14;;;;;;;;;;;;;;;;;;5034533;28;19913;-24
2022/08/09 18:12:42;;;;;;;;;;;;;;;;;;5051280;28;20027;-23
2022/08/09 18:15:10;;;;;;;;;;;;;;;;;;5056172;28;19909;-24
2022/08/09 18:17:41;;;;;;;;;;;;;;;;;;5055258;28;19913;-24
2022/08/09 18:20:08;;;;;;;;;;;;;;;;;;5056077;28;19908;-24
2022/08/09 18:22:35;;;;;;;;;;;;;;;;;;5038061;28;19913;-24
2022/08/09 18:25:02;;;;;;;;;;;;;;;;;;5056559;28;19910;-24
2022/08/09 18:27:29;;;;;;;;;;;;;;;;;;5056802;28;19913;-24
2022/08/09 18:29:56;;;;;;;;;;;;;;;;;;5056775;28;20238;-24
2022/08/09 18:32:24;;;;;;;;;;;;;;;;;;5056433;28;19909;-24
2022/08/09 18:34:51;;;;;;;;;;;;;;;;;;5038626;28;20386;-24